Terminal Aerodrome Forecast
Issued by NWS

Home | Current Version | Previous Version | Text Only | Print | Product List | Glossary On
Versions: 1 2 3 4 5 6 7 8 9 10 11 12 13 14 15 16 17 18 19 20 21 22 23 24 25 26 27 28 29 30
000
FTUS45 KBOI 222337
TAFBKE
TAF
KBKE 222337Z 2300/2324 08010KT P6SM VCSH SCT060 BKN100
      TEMPO 2300/2302 VRB20G30KT P6SM -TSRA SCT030 BKN060CB
     FM230300 VRB03KT P6SM VCSH SCT080 SCT120
     FM231800 12010KT P6SM BKN120=

USA.gov is the U.S. government's official web portal to all federal, state and local government web resources and services.